createdAt,value
2023-02-04T00:03:49.210Z,1.66
2023-02-04T00:08:55.261Z,1.85
2023-02-04T00:14:01.525Z,1.79
2023-02-04T00:19:07.564Z,1.83
2023-02-04T00:24:13.737Z,1.80
2023-02-04T00:29:19.858Z,2.08
2023-02-04T00:34:28.289Z,1.86
2023-02-04T00:39:34.433Z,1.77
2023-02-04T00:44:40.599Z,1.79
2023-02-04T00:49:46.687Z,1.74
2023-02-04T00:54:52.842Z,1.56
2023-02-04T00:59:58.910Z,1.79
2023-02-04T01:05:05.117Z,1.74
2023-02-04T01:10:11.172Z,1.63
2023-02-04T01:15:17.433Z,1.78
2023-02-04T01:20:23.505Z,1.88
2023-02-04T01:25:29.752Z,1.77
2023-02-04T01:30:35.847Z,1.63
2023-02-04T01:35:42.097Z,1.59
2023-02-04T01:40:48.181Z,1.45
2023-02-04T01:45:54.555Z,1.75
2023-02-04T01:51:00.531Z,1.43
2023-02-04T01:56:06.704Z,1.65
2023-02-04T02:01:12.842Z,1.58
2023-02-04T02:06:19.052Z,1.58
2023-02-04T02:11:25.141Z,1.39
2023-02-04T02:16:31.487Z,1.78
2023-02-04T02:21:37.440Z,1.72
2023-02-04T02:26:43.659Z,1.74
2023-02-04T02:31:49.946Z,1.57
2023-02-04T02:36:56.206Z,1.68
2023-02-04T02:42:02.290Z,1.50
2023-02-04T02:47:08.525Z,1.50
2023-02-04T02:52:14.601Z,1.78
2023-02-04T02:57:20.805Z,1.62
2023-02-04T03:02:26.907Z,1.54
2023-02-04T03:07:33.053Z,1.60
2023-02-04T03:12:39.133Z,1.69
2023-02-04T03:17:45.279Z,1.65
2023-02-04T03:22:51.420Z,1.48
2023-02-04T03:27:57.637Z,1.49
2023-02-04T03:33:03.665Z,1.31
2023-02-04T03:38:09.874Z,1.65
2023-02-04T03:43:15.936Z,1.36
2023-02-04T03:48:22.154Z,1.77
2023-02-04T03:53:28.207Z,1.49
2023-02-04T03:58:34.411Z,1.68
2023-02-04T04:03:40.464Z,1.54
2023-02-04T04:08:46.761Z,1.58
2023-02-04T04:13:52.907Z,1.51
2023-02-04T04:18:59.218Z,1.50
2023-02-04T04:24:05.273Z,1.50
2023-02-04T04:29:11.468Z,1.64
2023-02-04T04:34:17.604Z,1.51
2023-02-04T04:39:23.765Z,1.51
2023-02-04T04:44:29.819Z,1.42
2023-02-04T04:49:36.065Z,1.54
2023-02-04T04:54:42.127Z,1.53
2023-02-04T04:59:48.326Z,1.60
2023-02-04T05:04:54.400Z,1.87
2023-02-04T05:10:00.625Z,1.73
2023-02-04T05:15:06.810Z,1.90
2023-02-04T05:20:12.967Z,1.82
2023-02-04T05:25:19.142Z,1.69
2023-02-04T05:30:25.395Z,1.89
2023-02-04T05:35:31.448Z,1.82
2023-02-04T05:40:37.781Z,1.80
2023-02-04T05:45:43.910Z,1.80
2023-02-04T05:50:50.002Z,2.00
2023-02-04T05:55:56.132Z,1.53
2023-02-04T06:01:02.319Z,2.01
2023-02-04T06:06:08.391Z,1.77
2023-02-04T06:11:14.591Z,1.99
2023-02-04T06:16:20.759Z,1.92
2023-02-04T06:21:26.944Z,2.09
2023-02-04T06:26:33.138Z,2.13
2023-02-04T06:31:39.482Z,2.13
2023-02-04T06:36:45.501Z,2.20
2023-02-04T06:41:51.769Z,2.49
2023-02-04T06:46:58.001Z,2.12
2023-02-04T06:52:04.305Z,2.16
2023-02-04T06:57:10.393Z,2.06
2023-02-04T07:02:16.635Z,2.17
2023-02-04T07:07:22.721Z,2.34
2023-02-04T07:12:28.924Z,2.46
2023-02-04T07:17:35.080Z,2.28
2023-02-04T07:22:41.309Z,2.34
2023-02-04T07:27:47.446Z,2.48
2023-02-04T07:32:53.619Z,2.59
2023-02-04T07:37:59.748Z,2.73
2023-02-04T07:43:06.036Z,3.06
2023-02-04T07:48:12.105Z,3.04
2023-02-04T07:53:18.320Z,3.48
2023-02-04T07:58:24.395Z,3.89
2023-02-04T08:03:31.531Z,3.92
2023-02-04T08:08:36.260Z,4.12
2023-02-04T08:13:42.417Z,4.16
2023-02-04T08:18:48.476Z,4.43
2023-02-04T08:23:54.735Z,3.82
2023-02-04T08:29:00.887Z,3.53
2023-02-04T08:34:07.310Z,3.88
2023-02-04T08:39:13.455Z,3.35
2023-02-04T08:44:19.729Z,3.19
2023-02-04T08:49:25.870Z,3.28
2023-02-04T08:54:32.171Z,3.31
2023-02-04T08:59:38.225Z,3.26
2023-02-04T09:04:44.401Z,3.28
2023-02-04T09:09:50.469Z,3.63
2023-02-04T09:14:56.667Z,3.16
2023-02-04T09:20:02.802Z,3.22
2023-02-04T09:25:09.060Z,3.01
2023-02-04T09:30:15.126Z,2.89
2023-02-04T09:35:21.288Z,2.77
2023-02-04T09:40:27.349Z,2.96
2023-02-04T09:45:33.585Z,3.15
2023-02-04T09:50:39.641Z,3.35
2023-02-04T09:55:45.831Z,3.14
2023-02-04T10:00:52.081Z,3.12
2023-02-04T10:05:58.299Z,2.75
2023-02-04T10:11:04.395Z,3.05
2023-02-04T10:16:10.820Z,3.07
2023-02-04T10:21:16.885Z,2.92
2023-02-04T10:26:23.156Z,3.01
2023-02-04T10:31:29.409Z,2.89
2023-02-04T10:36:35.568Z,2.69
2023-02-04T10:41:41.666Z,2.82
2023-02-04T10:46:48.013Z,3.08
2023-02-04T10:51:57.141Z,3.01
2023-02-04T10:57:00.995Z,2.88
2023-02-04T11:02:07.474Z,2.57
2023-02-04T11:07:13.692Z,2.62
2023-02-04T11:12:19.880Z,2.26
2023-02-04T11:18:17.759Z,2.37
2023-02-04T11:23:23.840Z,2.27
2023-02-04T11:28:30.081Z,2.17
2023-02-04T11:33:36.347Z,2.29
2023-02-04T11:38:42.598Z,2.14
2023-02-04T11:43:48.769Z,2.35
2023-02-04T11:48:55.007Z,2.28
2023-02-04T11:54:01.071Z,2.57
2023-02-04T11:59:07.351Z,2.40
2023-02-04T12:04:13.437Z,2.32
2023-02-04T12:09:19.593Z,2.42
2023-02-04T12:14:25.646Z,2.35
2023-02-04T12:19:31.790Z,2.46
2023-02-04T12:24:37.883Z,2.39
2023-02-04T12:29:44.145Z,2.34
2023-02-04T12:34:50.283Z,2.26
2023-02-04T12:39:56.476Z,2.11
2023-02-04T12:45:02.547Z,2.15
2023-02-04T12:50:08.674Z,2.13
2023-02-04T12:55:15.080Z,2.05
2023-02-04T13:00:21.243Z,1.99
2023-02-04T13:05:27.310Z,2.31
2023-02-04T13:10:33.668Z,2.18
2023-02-04T13:15:39.804Z,2.18
2023-02-04T13:20:46.514Z,2.21
2023-02-04T13:25:52.594Z,2.32
2023-02-04T13:30:58.896Z,2.25
2023-02-04T13:36:05.002Z,2.28
2023-02-04T13:41:11.224Z,2.27
2023-02-04T13:46:17.308Z,2.39
2023-02-04T13:51:23.514Z,2.30
2023-02-04T13:56:29.601Z,2.22
2023-02-04T14:01:35.724Z,2.27
2023-02-04T14:06:41.822Z,2.19
2023-02-04T14:11:48.079Z,2.23
2023-02-04T14:16:54.416Z,2.14
2023-02-04T14:22:00.416Z,1.90
2023-02-04T14:27:06.515Z,2.09
2023-02-04T14:32:12.726Z,2.03
2023-02-04T14:37:18.824Z,1.98
2023-02-04T14:42:25.073Z,2.01
2023-02-04T14:47:31.151Z,2.05
2023-02-04T14:52:37.512Z,1.87
2023-02-04T14:57:43.582Z,1.95
2023-02-04T15:02:49.846Z,2.03
2023-02-04T15:07:56.021Z,1.92
2023-02-04T15:13:02.236Z,1.92
2023-02-04T15:18:08.309Z,2.10
2023-02-04T15:23:14.492Z,2.24
2023-02-04T15:28:20.666Z,2.05
2023-02-04T15:33:27.132Z,2.30
2023-02-04T15:38:33.212Z,2.27
2023-02-04T15:43:39.411Z,2.19
2023-02-04T15:48:45.520Z,2.06
2023-02-04T15:53:51.796Z,2.05
2023-02-04T15:58:57.859Z,2.21
2023-02-04T16:04:04.045Z,2.16
2023-02-04T16:09:10.095Z,2.30
2023-02-04T16:14:16.271Z,2.45
2023-02-04T16:19:22.331Z,2.37
2023-02-04T16:24:28.517Z,2.35
2023-02-04T16:29:34.614Z,3.14
2023-02-04T16:34:40.803Z,3.20
2023-02-04T16:39:46.968Z,3.28
2023-02-04T16:44:53.109Z,3.10
2023-02-04T16:49:59.196Z,2.78
2023-02-04T16:55:05.349Z,3.01
2023-02-04T17:00:11.443Z,3.41
2023-02-04T17:05:17.691Z,3.60
2023-02-04T17:10:23.760Z,3.82
2023-02-04T17:15:30.009Z,3.75
2023-02-04T17:20:35.957Z,3.32
2023-02-04T17:25:42.197Z,3.29
2023-02-04T17:30:48.291Z,2.92
2023-02-04T17:35:54.540Z,3.34
2023-02-04T17:41:00.610Z,4.11
2023-02-04T17:46:06.917Z,4.47
2023-02-04T17:51:13.006Z,4.47
2023-02-04T17:56:19.222Z,4.35
2023-02-04T18:01:26.227Z,3.92
2023-02-04T18:06:32.648Z,4.58
2023-02-04T18:11:38.418Z,4.83
2023-02-04T18:16:45.434Z,4.08
2023-02-04T18:21:51.399Z,4.45
2023-02-04T18:26:57.592Z,4.95
2023-02-04T18:32:03.697Z,4.25
2023-02-04T18:37:09.906Z,3.90
2023-02-04T18:42:16.393Z,5.51
2023-02-04T18:47:22.329Z,4.32
2023-02-04T18:52:28.509Z,5.26
2023-02-04T18:57:34.808Z,7.27
2023-02-04T19:02:40.925Z,5.89
2023-02-04T19:07:47.160Z,6.77
2023-02-04T19:12:53.239Z,6.93
2023-02-04T19:17:59.392Z,6.36
2023-02-04T19:23:05.486Z,6.65
2023-02-04T19:28:11.747Z,6.47
2023-02-04T19:33:17.761Z,6.37
2023-02-04T19:38:24.139Z,6.36
2023-02-04T19:43:30.326Z,7.90
2023-02-04T19:48:36.619Z,6.12
2023-02-04T19:53:42.823Z,5.93
2023-02-04T19:58:49.124Z,6.23
2023-02-04T20:03:55.248Z,5.66
2023-02-04T20:09:01.474Z,5.37
2023-02-04T20:14:07.555Z,4.83
2023-02-04T20:19:13.852Z,4.53
2023-02-04T20:24:19.981Z,4.89
2023-02-04T20:29:26.273Z,6.41
2023-02-04T20:34:32.369Z,5.42
2023-02-04T20:39:38.595Z,5.95
2023-02-04T20:44:44.702Z,5.93
2023-02-04T20:49:50.868Z,5.91
2023-02-04T20:54:56.979Z,6.30
2023-02-04T21:00:03.170Z,6.28
2023-02-04T21:05:09.296Z,6.85
2023-02-04T21:10:15.519Z,6.12
2023-02-04T21:15:21.586Z,5.77
2023-02-04T21:20:27.779Z,5.29
2023-02-04T21:25:34.198Z,5.02
2023-02-04T21:30:40.176Z,4.89
2023-02-04T21:35:46.296Z,5.30
2023-02-04T21:40:52.490Z,4.65
2023-02-04T21:45:58.737Z,5.86
2023-02-04T21:51:04.897Z,6.67
2023-02-04T21:56:10.967Z,6.55
2023-02-04T22:01:17.225Z,6.17
2023-02-04T22:06:23.260Z,5.72
2023-02-04T22:11:29.478Z,5.25
2023-02-04T22:16:35.730Z,5.35
2023-02-04T22:21:41.898Z,5.35
2023-02-04T22:26:48.024Z,5.35
2023-02-04T22:31:54.444Z,5.26
2023-02-04T22:37:00.451Z,5.20
2023-02-04T22:42:06.663Z,4.99
2023-02-04T22:47:12.752Z,5.03
2023-02-04T22:52:19.021Z,5.21
2023-02-04T22:57:25.146Z,5.24
2023-02-04T23:02:31.384Z,5.12
2023-02-04T23:07:37.471Z,4.72
2023-02-04T23:12:43.790Z,4.33
2023-02-04T23:17:49.964Z,4.19
2023-02-04T23:22:56.352Z,4.38
2023-02-04T23:28:02.463Z,4.25
2023-02-04T23:33:08.753Z,4.27
2023-02-04T23:38:14.838Z,4.50
2023-02-04T23:43:21.032Z,3.91
2023-02-04T23:48:27.149Z,4.00
2023-02-04T23:53:33.402Z,3.80
2023-02-04T23:58:39.489Z,4.02
